createdAt,value
2022-10-31T00:00:50.437Z,9.8
2022-10-31T00:02:50.253Z,9.8
2022-10-31T00:04:50.342Z,9.8
2022-10-31T00:06:50.208Z,9.8
2022-10-31T00:08:50.533Z,9.8
2022-10-31T00:10:50.878Z,9.8
2022-10-31T00:12:50.291Z,9.8
2022-10-31T00:14:50.642Z,9.8
2022-10-31T00:16:50.419Z,9.8
2022-10-31T00:18:50.738Z,9.8
2022-10-31T00:20:50.042Z,9.8
2022-10-31T00:22:50.490Z,9.7
2022-10-31T00:24:50.825Z,9.7
2022-10-31T00:26:50.628Z,9.7
2022-10-31T00:28:50.076Z,9.7
2022-10-31T00:30:50.489Z,9.7
2022-10-31T00:32:50.035Z,9.7
2022-10-31T00:34:50.050Z,9.6
2022-10-31T00:36:50.855Z,9.6
2022-10-31T00:38:50.232Z,9.7
2022-10-31T00:40:50.639Z,9.7
2022-10-31T00:42:50.385Z,9.7
2022-10-31T00:44:50.877Z,9.7
2022-10-31T00:46:50.751Z,9.7
2022-10-31T00:48:50.199Z,9.6
2022-10-31T00:50:50.520Z,9.6
2022-10-31T00:52:50.045Z,9.6
2022-10-31T00:54:50.429Z,9.6
2022-10-31T00:56:50.251Z,9.6
2022-10-31T00:58:50.715Z,9.6
2022-10-31T01:00:52.656Z,9.6
2022-10-31T01:02:50.193Z,9.5
2022-10-31T01:04:50.262Z,9.5
2022-10-31T01:06:50.079Z,9.5
2022-10-31T01:08:50.524Z,9.5
2022-10-31T01:10:50.875Z,9.4
2022-10-31T01:12:50.386Z,9.4
2022-10-31T01:14:50.767Z,9.4
2022-10-31T01:16:50.514Z,9.4
2022-10-31T01:18:50.939Z,9.3
2022-10-31T01:20:50.305Z,9.3
2022-10-31T01:22:49.921Z,9.3
2022-10-31T01:24:50.573Z,9.3
2022-10-31T01:26:50.413Z,9.3
2022-10-31T01:28:49.934Z,9.3
2022-10-31T01:30:50.578Z,9.3
2022-10-31T01:32:50.460Z,9.2
2022-10-31T01:34:50.489Z,9.2
2022-10-31T01:36:50.367Z,9.2
2022-10-31T01:38:50.816Z,9.2
2022-10-31T01:40:50.396Z,9.2
2022-10-31T01:42:50.894Z,9.2
2022-10-31T01:44:50.552Z,9.3
2022-10-31T01:46:50.362Z,9.3
2022-10-31T01:48:50.940Z,9.3
2022-10-31T01:50:50.452Z,9.3
2022-10-31T01:52:50.000Z,9.3
2022-10-31T01:54:50.322Z,9.3
2022-10-31T01:56:50.118Z,9.3
2022-10-31T01:58:50.664Z,9.3
2022-10-31T02:00:50.593Z,9.3
2022-10-31T02:02:50.508Z,9.3
2022-10-31T02:04:50.724Z,9.3
2022-10-31T02:06:50.527Z,9.3
2022-10-31T02:08:50.362Z,9.4
2022-10-31T02:10:50.834Z,9.4
2022-10-31T02:12:50.270Z,9.4
2022-10-31T02:14:50.705Z,9.4
2022-10-31T02:16:50.466Z,9.4
2022-10-31T02:18:50.016Z,9.3
2022-10-31T02:20:50.469Z,9.3
2022-10-31T02:22:49.984Z,9.3
2022-10-31T02:24:50.429Z,9.3
2022-10-31T02:26:50.239Z,9.3
2022-10-31T02:28:50.764Z,9.3
2022-10-31T02:30:50.146Z,9.3
2022-10-31T02:32:50.663Z,9.2
2022-10-31T02:34:50.429Z,9.2
2022-10-31T02:36:50.354Z,9.1
2022-10-31T02:38:50.854Z,9.1
2022-10-31T02:40:50.342Z,9.1
2022-10-31T02:42:50.828Z,9.1
2022-10-31T02:44:50.170Z,9.1
2022-10-31T02:46:49.930Z,9.1
2022-10-31T02:48:50.458Z,9.1
2022-10-31T02:50:50.878Z,9.1
2022-10-31T02:52:50.242Z,9.1
2022-10-31T02:54:50.726Z,9.1
2022-10-31T02:56:50.514Z,9.1
2022-10-31T02:58:50.026Z,9.1
2022-10-31T03:00:53.203Z,9.1
2022-10-31T03:02:50.672Z,9.1
2022-10-31T03:04:50.353Z,9.1
2022-10-31T03:06:50.125Z,9.2
2022-10-31T03:08:50.305Z,9.2
2022-10-31T03:10:50.651Z,9.1
2022-10-31T03:12:50.091Z,9.1
2022-10-31T03:14:50.432Z,9.1
2022-10-31T03:16:50.236Z,9.1
2022-10-31T03:18:50.634Z,9.1
2022-10-31T03:20:49.916Z,9.1
2022-10-31T03:22:50.503Z,9.0
2022-10-31T03:24:50.865Z,9.0
2022-10-31T03:26:50.655Z,9.0
2022-10-31T03:28:50.047Z,8.9
2022-10-31T03:30:50.383Z,8.9
2022-10-31T03:32:50.855Z,8.9
2022-10-31T03:34:50.676Z,8.9
2022-10-31T03:36:50.475Z,8.8
2022-10-31T03:38:50.815Z,8.8
2022-10-31T03:40:50.122Z,8.8
2022-10-31T03:42:50.562Z,8.8
2022-10-31T03:44:49.973Z,8.8
2022-10-31T03:46:50.641Z,8.7
2022-10-31T03:48:50.099Z,8.7
2022-10-31T03:50:50.434Z,8.8
2022-10-31T03:52:50.881Z,8.8
2022-10-31T03:54:50.148Z,8.8
2022-10-31T03:56:50.774Z,8.8
2022-10-31T03:58:50.289Z,8.7
2022-10-31T04:00:50.662Z,8.8
2022-10-31T04:02:50.180Z,8.7
2022-10-31T04:04:50.041Z,8.7
2022-10-31T04:06:50.778Z,8.7
2022-10-31T04:08:50.271Z,8.7
2022-10-31T04:10:50.612Z,8.7
2022-10-31T04:12:50.091Z,8.7
2022-10-31T04:14:50.429Z,8.7
2022-10-31T04:16:50.157Z,8.8
2022-10-31T04:18:50.506Z,8.8
2022-10-31T04:20:50.868Z,8.7
2022-10-31T04:22:50.269Z,8.7
2022-10-31T04:24:50.659Z,8.7
2022-10-31T04:26:50.345Z,8.7
2022-10-31T04:28:50.849Z,8.7
2022-10-31T04:30:50.273Z,8.7
2022-10-31T04:32:50.646Z,8.7
2022-10-31T04:34:50.575Z,8.7
2022-10-31T04:36:50.367Z,8.7
2022-10-31T04:38:50.747Z,8.6
2022-10-31T04:40:50.095Z,8.6
2022-10-31T04:42:50.556Z,8.6
2022-10-31T04:44:51.002Z,8.6
2022-10-31T04:46:50.786Z,8.5
2022-10-31T04:48:50.145Z,8.4
2022-10-31T04:50:50.485Z,8.4
2022-10-31T04:52:50.944Z,8.4
2022-10-31T04:54:50.261Z,8.4
2022-10-31T04:56:50.907Z,8.4
2022-10-31T04:58:50.421Z,8.4
2022-10-31T05:00:51.139Z,8.4
2022-10-31T05:02:50.646Z,8.4
2022-10-31T05:04:50.493Z,8.3
2022-10-31T05:06:50.276Z,8.3
2022-10-31T05:08:50.739Z,8.3
2022-10-31T05:10:50.127Z,8.3
2022-10-31T05:12:50.604Z,8.3
2022-10-31T05:14:49.972Z,8.3
2022-10-31T05:16:50.767Z,8.3
2022-10-31T05:18:50.219Z,8.3
2022-10-31T05:20:50.688Z,8.3
2022-10-31T05:22:50.173Z,8.3
2022-10-31T05:24:50.503Z,8.3
2022-10-31T05:26:50.214Z,8.3
2022-10-31T05:28:50.662Z,8.3
2022-10-31T05:30:50.035Z,8.3
2022-10-31T05:32:50.395Z,8.3
2022-10-31T05:34:50.181Z,8.3
2022-10-31T05:36:50.755Z,8.3
2022-10-31T05:38:50.207Z,8.3
2022-10-31T05:40:50.582Z,8.3
2022-10-31T05:42:50.105Z,8.3
2022-10-31T05:44:50.550Z,8.2
2022-10-31T05:46:50.159Z,8.2
2022-10-31T05:48:50.620Z,8.2
2022-10-31T05:50:49.966Z,8.2
2022-10-31T05:52:50.289Z,8.2
2022-10-31T05:54:50.771Z,8.2
2022-10-31T05:56:50.440Z,8.2
2022-10-31T05:58:49.933Z,8.2
2022-10-31T06:00:50.172Z,8.2
2022-10-31T06:02:50.476Z,8.2
2022-10-31T06:04:50.550Z,8.2
2022-10-31T06:06:50.581Z,8.2
2022-10-31T06:08:49.981Z,8.2
2022-10-31T06:10:50.302Z,8.2
2022-10-31T06:12:50.690Z,8.1
2022-10-31T06:14:50.176Z,8.1
2022-10-31T06:16:50.002Z,8.1
2022-10-31T06:18:50.500Z,8.1
2022-10-31T06:20:50.812Z,8.1
2022-10-31T06:22:50.170Z,8.1
2022-10-31T06:24:50.655Z,8.1
2022-10-31T06:26:50.311Z,8.1
2022-10-31T06:28:50.638Z,8.2
2022-10-31T06:30:50.086Z,8.2
2022-10-31T06:32:50.568Z,8.2
2022-10-31T06:34:50.421Z,8.3
2022-10-31T06:36:50.267Z,8.3
2022-10-31T06:38:50.762Z,8.3
2022-10-31T06:40:50.094Z,8.4
2022-10-31T06:42:50.487Z,8.4
2022-10-31T06:44:49.961Z,8.4
2022-10-31T06:46:50.710Z,8.4
2022-10-31T06:48:50.150Z,8.4
2022-10-31T06:50:50.449Z,8.5
2022-10-31T06:52:50.790Z,8.5
2022-10-31T06:54:50.176Z,8.5
2022-10-31T06:56:50.962Z,8.6
2022-10-31T06:58:50.386Z,8.6
2022-10-31T07:00:50.869Z,8.5
2022-10-31T07:02:50.261Z,8.6
2022-10-31T07:04:50.272Z,8.6
2022-10-31T07:06:52.492Z,8.6
2022-10-31T07:08:49.976Z,8.6
2022-10-31T07:10:50.267Z,8.7
2022-10-31T07:12:50.634Z,8.8
2022-10-31T07:14:50.051Z,8.8
2022-10-31T07:16:50.867Z,8.9
2022-10-31T07:18:50.348Z,8.9
2022-10-31T07:20:50.776Z,8.9
2022-10-31T07:22:51.281Z,9.0
2022-10-31T07:24:50.726Z,9.0
2022-10-31T07:26:50.767Z,9.1
2022-10-31T07:28:50.231Z,9.1
2022-10-31T07:30:50.708Z,9.3
2022-10-31T07:32:50.077Z,9.3
2022-10-31T07:34:50.006Z,9.3
2022-10-31T07:36:50.639Z,9.5
2022-10-31T07:38:50.052Z,9.5
2022-10-31T07:40:50.503Z,9.6
2022-10-31T07:42:49.979Z,9.6
2022-10-31T07:44:58.063Z,9.7
2022-10-31T07:46:50.741Z,9.8
2022-10-31T07:48:50.213Z,9.8
2022-10-31T07:50:50.596Z,9.8
2022-10-31T07:52:49.988Z,9.9
2022-10-31T07:54:50.569Z,10.0
2022-10-31T07:56:50.411Z,10.0
2022-10-31T07:58:50.916Z,10.2
2022-10-31T08:00:51.046Z,10.2
2022-10-31T08:02:50.574Z,10.2
2022-10-31T08:04:50.364Z,10.3
2022-10-31T08:06:50.103Z,10.3
2022-10-31T08:08:50.530Z,10.4
2022-10-31T08:10:50.072Z,10.4
2022-10-31T08:12:50.576Z,10.5
2022-10-31T08:14:49.949Z,10.6
2022-10-31T08:16:50.576Z,10.6
2022-10-31T08:18:50.003Z,10.7
2022-10-31T08:20:50.366Z,10.7
2022-10-31T08:22:49.664Z,10.8
2022-10-31T08:24:49.939Z,10.8
2022-10-31T08:26:50.654Z,10.9
2022-10-31T08:28:50.151Z,11.0
2022-10-31T08:30:50.565Z,11.0
2022-10-31T08:32:49.921Z,11.1
2022-10-31T08:34:50.783Z,11.1
2022-10-31T08:36:50.564Z,11.2
2022-10-31T08:38:49.969Z,11.2
2022-10-31T08:40:50.323Z,11.3
2022-10-31T08:42:50.836Z,11.3
2022-10-31T08:44:50.253Z,11.4
2022-10-31T08:46:49.981Z,11.4
2022-10-31T08:48:50.437Z,11.5
2022-10-31T08:50:50.790Z,11.5
2022-10-31T08:53:06.735Z,11.5
2022-10-31T08:54:50.790Z,11.6
2022-10-31T08:56:50.563Z,11.6
2022-10-31T08:58:50.007Z,11.6
2022-10-31T09:00:50.706Z,11.7
2022-10-31T09:02:50.403Z,11.8
2022-10-31T09:04:50.104Z,11.8
2022-10-31T09:07:21.397Z,11.8
2022-10-31T09:08:49.934Z,11.8
2022-10-31T09:10:50.268Z,11.9
2022-10-31T09:12:50.711Z,12.0
2022-10-31T09:14:49.984Z,12.0
2022-10-31T09:16:50.648Z,12.1
2022-10-31T09:18:50.055Z,12.1
2022-10-31T09:20:50.378Z,12.2
2022-10-31T09:22:50.698Z,12.2
2022-10-31T09:24:50.219Z,12.2
2022-10-31T09:26:50.863Z,12.2
2022-10-31T09:28:50.432Z,12.3
2022-10-31T09:30:50.808Z,12.4
2022-10-31T09:32:50.263Z,12.4
2022-10-31T09:34:50.132Z,12.5
2022-10-31T09:36:49.961Z,12.6
2022-10-31T09:38:50.310Z,12.6
2022-10-31T09:40:50.652Z,12.5
2022-10-31T09:42:50.105Z,12.6
2022-10-31T09:44:50.366Z,12.6
2022-10-31T09:46:50.286Z,12.6
2022-10-31T09:48:50.739Z,12.6
2022-10-31T09:50:50.175Z,12.7
2022-10-31T09:52:50.587Z,12.8
2022-10-31T09:54:49.978Z,12.8
2022-10-31T09:56:50.695Z,12.8
2022-10-31T09:58:50.050Z,12.9
2022-10-31T10:00:50.665Z,13.0
2022-10-31T10:02:50.285Z,13.0
2022-10-31T10:04:50.253Z,13.0
2022-10-31T10:06:50.017Z,13.1
2022-10-31T10:08:50.268Z,13.1
2022-10-31T10:10:50.595Z,13.2
2022-10-31T10:12:50.054Z,13.3
2022-10-31T10:14:50.401Z,13.3
2022-10-31T10:16:50.129Z,13.4
2022-10-31T10:18:50.429Z,13.4
2022-10-31T10:20:50.740Z,13.5
2022-10-31T10:22:50.259Z,13.5
2022-10-31T10:24:50.520Z,13.5
2022-10-31T10:26:50.124Z,13.7
2022-10-31T10:28:50.626Z,13.7
2022-10-31T10:30:50.069Z,13.8
2022-10-31T10:32:52.649Z,13.8
2022-10-31T10:34:50.499Z,13.8
2022-10-31T10:36:50.186Z,13.9
2022-10-31T10:38:50.451Z,14.0
2022-10-31T10:40:50.807Z,14.1
2022-10-31T10:42:50.268Z,14.1
2022-10-31T10:44:50.568Z,14.1
2022-10-31T10:46:50.318Z,14.2
2022-10-31T10:48:50.654Z,14.3
2022-10-31T10:50:49.997Z,14.3
2022-10-31T10:52:51.599Z,14.4
2022-10-31T10:54:49.920Z,14.5
2022-10-31T10:56:50.524Z,14.5
2022-10-31T10:58:50.245Z,14.6
2022-10-31T11:00:51.679Z,14.6
2022-10-31T11:02:50.380Z,14.7
2022-10-31T11:04:50.198Z,14.8
2022-10-31T11:06:50.812Z,14.9
2022-10-31T11:08:50.262Z,15.0
2022-10-31T11:10:50.620Z,15.0
2022-10-31T11:12:50.032Z,15.0
2022-10-31T11:14:50.378Z,15.1
2022-10-31T11:16:50.148Z,15.2
2022-10-31T11:18:50.444Z,15.2
2022-10-31T11:20:50.809Z,15.2
2022-10-31T11:22:50.335Z,15.4
2022-10-31T11:24:50.744Z,15.4
2022-10-31T11:26:50.651Z,15.5
2022-10-31T11:28:50.105Z,15.5
2022-10-31T11:30:50.484Z,15.5
2022-10-31T11:32:50.908Z,15.6
2022-10-31T11:34:50.756Z,15.7
2022-10-31T11:36:50.578Z,15.8
2022-10-31T11:38:49.980Z,15.8
2022-10-31T11:40:50.277Z,15.8
2022-10-31T11:42:50.763Z,15.9
2022-10-31T11:44:50.176Z,16.0
2022-10-31T11:46:50.044Z,16.2
2022-10-31T11:48:50.269Z,16.2
2022-10-31T11:50:50.663Z,16.3
2022-10-31T11:52:50.492Z,16.3
2022-10-31T11:54:50.882Z,16.4
2022-10-31T11:56:50.401Z,16.5
2022-10-31T11:58:50.772Z,16.5
2022-10-31T12:00:50.068Z,16.6
2022-10-31T12:02:50.659Z,16.7
2022-10-31T12:04:50.611Z,16.8
2022-10-31T12:06:50.329Z,16.8
2022-10-31T12:08:50.746Z,16.9
2022-10-31T12:10:50.105Z,17.0
2022-10-31T12:12:50.389Z,17.1
2022-10-31T12:14:50.852Z,17.2
2022-10-31T12:16:50.624Z,17.3
2022-10-31T12:18:50.052Z,17.3
2022-10-31T12:20:50.567Z,17.4
2022-10-31T12:22:49.963Z,17.4
2022-10-31T12:24:50.310Z,17.5
2022-10-31T12:26:50.119Z,17.5
2022-10-31T12:28:55.934Z,17.6
2022-10-31T12:30:50.386Z,17.7
2022-10-31T12:32:50.673Z,17.8
2022-10-31T12:34:50.775Z,17.8
2022-10-31T12:36:50.567Z,17.8
2022-10-31T12:38:49.990Z,17.8
2022-10-31T12:40:50.337Z,17.9
2022-10-31T12:42:50.625Z,18.0
2022-10-31T12:44:49.975Z,18.1
2022-10-31T12:46:50.689Z,18.1
2022-10-31T12:48:58.670Z,18.2
2022-10-31T12:50:49.960Z,18.2
2022-10-31T12:52:50.535Z,18.2
2022-10-31T12:54:50.858Z,18.3
2022-10-31T12:56:50.363Z,18.3
2022-10-31T12:58:50.823Z,18.4
2022-10-31T13:00:50.547Z,18.4
2022-10-31T13:02:50.017Z,18.4
2022-10-31T13:04:49.879Z,18.5
2022-10-31T13:06:50.465Z,18.6
2022-10-31T13:08:50.858Z,18.6
2022-10-31T13:10:50.893Z,18.6
2022-10-31T13:12:50.503Z,18.6
2022-10-31T13:14:49.956Z,18.6
2022-10-31T13:16:49.940Z,18.6
2022-10-31T13:18:50.363Z,18.7
2022-10-31T13:20:56.213Z,18.7
2022-10-31T13:22:50.745Z,18.7
2022-10-31T13:24:50.116Z,18.7
2022-10-31T13:26:50.865Z,18.7
2022-10-31T13:30:50.629Z,18.6
2022-10-31T13:32:50.024Z,18.6
2022-10-31T13:34:50.876Z,18.6
2022-10-31T13:36:50.543Z,18.6
2022-10-31T13:38:50.905Z,18.6
2022-10-31T13:40:50.337Z,18.6
2022-10-31T13:42:50.807Z,18.5
2022-10-31T13:44:50.307Z,18.5
2022-10-31T13:46:49.978Z,18.5
2022-10-31T13:48:50.501Z,18.4
2022-10-31T13:50:50.154Z,18.4
2022-10-31T13:52:50.630Z,18.4
2022-10-31T13:54:50.044Z,18.4
2022-10-31T13:56:50.641Z,18.4
2022-10-31T13:58:50.170Z,18.3
2022-10-31T14:00:50.761Z,18.3
2022-10-31T14:02:50.177Z,18.3
2022-10-31T14:04:50.789Z,18.3
2022-10-31T14:06:50.885Z,18.2
2022-10-31T14:08:50.636Z,18.2
2022-10-31T14:10:50.395Z,18.2
2022-10-31T14:12:50.840Z,18.2
2022-10-31T14:14:50.340Z,18.2
2022-10-31T14:16:56.121Z,18.2
2022-10-31T14:18:50.430Z,18.2
2022-10-31T14:20:50.911Z,18.1
2022-10-31T14:22:50.618Z,18.1
2022-10-31T14:24:50.171Z,18.1
2022-10-31T14:26:50.009Z,18.0
2022-10-31T14:28:50.349Z,18.0
2022-10-31T14:30:50.799Z,18.0
2022-10-31T14:32:50.086Z,18.0
2022-10-31T14:34:50.873Z,17.9
2022-10-31T14:36:50.569Z,17.9
2022-10-31T14:38:49.979Z,17.9
2022-10-31T14:42:50.677Z,17.8
2022-10-31T14:44:50.089Z,17.7
2022-10-31T14:46:50.816Z,17.7
2022-10-31T14:48:50.161Z,17.6
2022-10-31T14:50:50.438Z,17.6
2022-10-31T14:52:50.740Z,17.6
2022-10-31T14:54:50.105Z,17.5
2022-10-31T14:56:49.979Z,17.4
2022-10-31T14:58:50.477Z,17.4
2022-10-31T15:00:51.079Z,17.4
2022-10-31T15:02:50.457Z,17.3
2022-10-31T15:04:50.111Z,17.3
2022-10-31T15:06:50.835Z,17.2
2022-10-31T15:08:50.393Z,17.2
2022-10-31T15:10:50.688Z,17.2
2022-10-31T15:12:50.091Z,17.0
2022-10-31T15:14:50.566Z,17.0
2022-10-31T15:16:50.359Z,17.0
2022-10-31T15:18:50.722Z,16.9
2022-10-31T15:20:50.069Z,16.8
2022-10-31T15:22:50.387Z,16.8
2022-10-31T15:24:50.843Z,16.7
2022-10-31T15:26:50.516Z,16.7
2022-10-31T15:28:50.868Z,16.6
2022-10-31T15:30:50.436Z,16.6
2022-10-31T15:32:59.743Z,16.6
2022-10-31T15:34:50.587Z,16.6
2022-10-31T15:36:50.345Z,16.6
2022-10-31T15:38:50.723Z,16.5
2022-10-31T15:40:50.279Z,16.4
2022-10-31T15:42:50.624Z,16.3
2022-10-31T15:44:50.040Z,16.3
2022-10-31T15:46:50.956Z,16.3
2022-10-31T15:48:50.273Z,16.2
2022-10-31T15:50:50.776Z,16.2
2022-10-31T15:52:50.446Z,16.2
2022-10-31T15:54:50.727Z,16.2
2022-10-31T15:56:50.563Z,16.1
2022-10-31T15:58:49.902Z,16.0
2022-10-31T16:00:50.436Z,15.9
2022-10-31T16:02:49.969Z,15.9
2022-10-31T16:04:50.805Z,15.8
2022-10-31T16:06:50.531Z,15.8
2022-10-31T16:08:50.006Z,15.8
2022-10-31T16:10:50.347Z,15.7
2022-10-31T16:12:50.878Z,15.7
2022-10-31T16:14:50.255Z,15.6
2022-10-31T16:16:49.941Z,15.6
2022-10-31T16:18:50.408Z,15.5
2022-10-31T16:20:50.769Z,15.5
2022-10-31T16:22:50.316Z,15.5
2022-10-31T16:24:50.673Z,15.4
2022-10-31T16:26:50.418Z,15.4
2022-10-31T16:28:50.827Z,15.4
2022-10-31T16:30:50.218Z,15.3
2022-10-31T16:32:50.741Z,15.3
2022-10-31T16:34:50.823Z,15.2
2022-10-31T16:36:50.749Z,15.1
2022-10-31T16:38:50.102Z,15.0
2022-10-31T16:40:50.619Z,15.0
2022-10-31T16:42:50.118Z,15.0
2022-10-31T16:44:50.489Z,15.0
2022-10-31T16:46:50.168Z,14.9
2022-10-31T16:48:50.514Z,14.8
2022-10-31T16:50:49.971Z,14.7
2022-10-31T16:53:15.148Z,14.7
2022-10-31T16:54:50.330Z,14.6
2022-10-31T16:56:50.055Z,14.6
2022-10-31T16:58:50.427Z,14.5
2022-10-31T17:00:51.088Z,14.5
2022-10-31T17:02:50.621Z,14.5
2022-10-31T17:04:57.421Z,14.4
2022-10-31T17:06:50.402Z,14.3
2022-10-31T17:08:49.979Z,14.2
2022-10-31T17:10:50.600Z,14.2
2022-10-31T17:12:50.037Z,14.2
2022-10-31T17:14:50.669Z,14.1
2022-10-31T17:16:50.482Z,14.0
2022-10-31T17:18:49.934Z,14.0
2022-10-31T17:20:50.324Z,14.0
2022-10-31T17:22:50.858Z,13.9
2022-10-31T17:24:50.336Z,13.8
2022-10-31T17:26:50.286Z,13.8
2022-10-31T17:28:50.666Z,13.8
2022-10-31T17:30:50.158Z,13.6
2022-10-31T17:32:50.690Z,13.6
2022-10-31T17:34:50.548Z,13.5
2022-10-31T17:36:50.323Z,13.4
2022-10-31T17:38:50.787Z,13.4
2022-10-31T17:40:50.385Z,13.4
2022-10-31T17:42:50.944Z,13.3
2022-10-31T17:44:50.484Z,13.2
2022-10-31T17:46:50.319Z,13.2
2022-10-31T17:48:50.896Z,13.2
2022-10-31T17:50:50.392Z,13.2
2022-10-31T17:52:50.083Z,13.1
2022-10-31T17:54:50.614Z,13.1
2022-10-31T17:56:50.559Z,13.0
2022-10-31T17:58:49.981Z,13.0
2022-10-31T18:00:52.162Z,13.0
2022-10-31T18:02:50.771Z,12.9
2022-10-31T18:04:50.788Z,12.8
2022-10-31T18:06:50.674Z,12.7
2022-10-31T18:08:50.202Z,12.7
2022-10-31T18:10:50.819Z,12.7
2022-10-31T18:12:50.370Z,12.6
2022-10-31T18:14:50.868Z,12.6
2022-10-31T18:16:50.726Z,12.6
2022-10-31T18:18:50.216Z,12.5
2022-10-31T18:20:50.830Z,12.5
2022-10-31T18:22:50.431Z,12.4
2022-10-31T18:24:49.973Z,12.4
2022-10-31T18:26:50.850Z,12.4
2022-10-31T18:28:50.367Z,12.3
2022-10-31T18:30:49.956Z,12.2
2022-10-31T18:32:50.455Z,12.2
2022-10-31T18:34:50.373Z,12.2
2022-10-31T18:36:50.319Z,12.2
2022-10-31T18:38:50.906Z,12.1
2022-10-31T18:40:50.414Z,12.1
2022-10-31T18:42:49.941Z,12.1
2022-10-31T18:44:50.343Z,12.0
2022-10-31T18:46:50.224Z,12.0
2022-10-31T18:48:50.699Z,11.9
2022-10-31T18:50:50.257Z,11.9
2022-10-31T18:52:50.800Z,11.9
2022-10-31T18:54:50.234Z,11.8
2022-10-31T18:56:50.076Z,11.8
2022-10-31T18:58:50.544Z,11.8
2022-10-31T19:00:50.290Z,11.8
2022-10-31T19:02:50.022Z,11.7
2022-10-31T19:04:50.069Z,11.6
2022-10-31T19:06:50.838Z,11.6
2022-10-31T19:08:50.386Z,11.6
2022-10-31T19:10:50.739Z,11.5
2022-10-31T19:12:50.227Z,11.5
2022-10-31T19:14:50.815Z,11.5
2022-10-31T19:16:56.142Z,11.4
2022-10-31T19:18:50.748Z,11.4
2022-10-31T19:20:50.336Z,11.4
2022-10-31T19:22:50.775Z,11.4
2022-10-31T19:24:50.220Z,11.3
2022-10-31T19:26:50.060Z,11.3
2022-10-31T19:28:50.560Z,11.2
2022-10-31T19:30:50.014Z,11.2
2022-10-31T19:32:50.537Z,11.2
2022-10-31T19:34:50.703Z,11.1
2022-10-31T19:36:50.691Z,11.1
2022-10-31T19:38:50.178Z,11.0
2022-10-31T19:40:50.784Z,11.0
2022-10-31T19:42:50.226Z,11.0
2022-10-31T19:44:50.783Z,11.0
2022-10-31T19:46:54.702Z,10.9
2022-10-31T19:48:50.262Z,10.9
2022-10-31T19:50:58.888Z,10.8
2022-10-31T19:52:50.382Z,10.8
2022-10-31T19:54:50.801Z,10.7
2022-10-31T19:56:50.775Z,10.6
2022-10-31T19:58:50.110Z,10.6
2022-10-31T20:00:50.918Z,10.6
2022-10-31T20:02:50.622Z,10.6
2022-10-31T20:04:50.660Z,10.5
2022-10-31T20:06:50.537Z,10.5
2022-10-31T20:08:49.961Z,10.5
2022-10-31T20:10:50.459Z,10.4
2022-10-31T20:12:50.820Z,10.4
2022-10-31T20:14:50.561Z,10.4
2022-10-31T20:16:50.352Z,10.3
2022-10-31T20:18:50.229Z,10.3
2022-10-31T20:20:50.812Z,10.3
2022-10-31T20:22:50.375Z,10.3
2022-10-31T20:24:50.886Z,10.3
2022-10-31T20:26:50.531Z,10.2
2022-10-31T20:28:49.998Z,10.2
2022-10-31T20:30:50.425Z,10.2
2022-10-31T20:32:50.624Z,10.2
2022-10-31T20:34:50.474Z,10.2
2022-10-31T20:36:50.359Z,10.1
2022-10-31T20:38:50.780Z,10.1
2022-10-31T20:40:50.261Z,10.1
2022-10-31T20:42:50.800Z,10.1
2022-10-31T20:44:50.370Z,10.0
2022-10-31T20:46:50.165Z,10.0
2022-10-31T20:48:50.647Z,10.0
2022-10-31T20:50:50.163Z,10.0
2022-10-31T20:52:50.747Z,9.9
2022-10-31T20:54:50.219Z,9.9
2022-10-31T20:56:50.090Z,9.9
2022-10-31T20:58:50.411Z,9.8
2022-10-31T21:00:51.137Z,9.8
2022-10-31T21:02:50.021Z,9.8
2022-10-31T21:04:50.015Z,9.8
2022-10-31T21:06:50.878Z,9.8
2022-10-31T21:08:50.453Z,9.8
2022-10-31T21:10:50.061Z,9.8
2022-10-31T21:12:50.490Z,9.8
2022-10-31T21:14:50.200Z,9.8
2022-10-31T21:16:50.020Z,9.8
2022-10-31T21:18:50.561Z,9.7
2022-10-31T21:20:49.947Z,9.7
2022-10-31T21:22:50.407Z,9.6
2022-10-31T21:24:50.849Z,9.6
2022-10-31T21:26:50.769Z,9.6
2022-10-31T21:28:50.309Z,9.6
2022-10-31T21:30:50.861Z,9.5
2022-10-31T21:32:50.292Z,9.5
2022-10-31T21:34:50.083Z,9.5
2022-10-31T21:36:50.895Z,9.4
2022-10-31T21:38:50.345Z,9.4
2022-10-31T21:40:50.946Z,9.3
2022-10-31T21:42:50.411Z,9.3
2022-10-31T21:44:49.961Z,9.3
2022-10-31T21:46:50.758Z,9.3
2022-10-31T21:48:50.315Z,9.3
2022-10-31T21:50:50.851Z,9.2
2022-10-31T21:52:50.432Z,9.2
2022-10-31T21:54:50.891Z,9.2
2022-10-31T21:56:50.865Z,9.2
2022-10-31T21:58:50.302Z,9.1
2022-10-31T22:00:51.127Z,9.1
2022-10-31T22:02:50.874Z,9.1
2022-10-31T22:04:50.913Z,9.1
2022-10-31T22:06:50.045Z,9.1
2022-10-31T22:08:50.680Z,9.1
2022-10-31T22:10:50.279Z,9.1
2022-10-31T22:12:50.808Z,9.1
2022-10-31T22:14:50.232Z,9.2
2022-10-31T22:16:50.162Z,9.2
2022-10-31T22:18:50.555Z,9.2
2022-10-31T22:20:50.304Z,9.2
2022-10-31T22:22:50.947Z,9.2
2022-10-31T22:24:50.397Z,9.2
2022-10-31T22:26:50.227Z,9.2
2022-10-31T22:28:50.814Z,9.2
2022-10-31T22:30:50.300Z,9.2
2022-10-31T22:32:50.787Z,9.2
2022-10-31T22:34:50.724Z,9.3
2022-10-31T22:36:50.531Z,9.3
2022-10-31T22:38:49.958Z,9.3
2022-10-31T22:40:50.433Z,9.3
2022-10-31T22:42:49.933Z,9.3
2022-10-31T22:44:50.510Z,9.3
2022-10-31T22:46:50.356Z,9.3
2022-10-31T22:48:50.802Z,9.4
2022-10-31T22:50:50.345Z,9.4
2022-10-31T22:52:50.778Z,9.4
2022-10-31T22:54:56.948Z,9.4
2022-10-31T22:56:50.266Z,9.5
2022-10-31T22:58:51.001Z,9.5
2022-10-31T23:00:50.794Z,9.5
2022-10-31T23:02:50.372Z,9.5
2022-10-31T23:04:50.262Z,9.5
2022-10-31T23:06:50.198Z,9.5
2022-10-31T23:08:50.724Z,9.5
2022-10-31T23:10:50.248Z,9.5
2022-10-31T23:12:50.718Z,9.5
2022-10-31T23:14:50.267Z,9.5
2022-10-31T23:16:50.201Z,9.5
2022-10-31T23:18:51.142Z,9.5
2022-10-31T23:20:50.562Z,9.5
2022-10-31T23:22:49.990Z,9.5
2022-10-31T23:24:50.592Z,9.5
2022-10-31T23:26:50.366Z,9.5
2022-10-31T23:28:50.890Z,9.5
2022-10-31T23:30:50.410Z,9.5
2022-10-31T23:32:49.927Z,9.5
2022-10-31T23:34:50.857Z,9.6
2022-10-31T23:36:50.792Z,9.6
2022-10-31T23:38:50.176Z,9.5
2022-10-31T23:40:50.715Z,9.6
2022-10-31T23:42:50.144Z,9.5
2022-10-31T23:44:50.749Z,9.6
2022-10-31T23:46:50.575Z,9.6
2022-10-31T23:48:50.112Z,9.6
2022-10-31T23:50:50.588Z,9.6
2022-10-31T23:52:50.058Z,9.6
2022-10-31T23:54:50.495Z,9.6
2022-10-31T23:56:50.350Z,9.5
2022-10-31T23:58:50.730Z,9.5
